NKS1440 MMUN-KFLL
Flight info
| Callsign | NKS1440 |
|---|---|
| Flight time | 1h 26m |
| Altitude | 35000 |
| Route | NUDAL1A NUDAL UV106 PODON UG765 MAXIM BHHIA3 |
| Aircraft | A20N/M-SDE2E3FGHIRWXY/LB1 |
Departure
| Time | 2026-05-03 22:45 |
|---|---|
| Airport | Cancún International Airport (MMUN) |
Arrival
| Time | 2026-05-04 00:11 |
|---|---|
| Airport | Fort Lauderdale Hollywood International Airport (KFLL) |
| Time | Latitude | Longitude | Altitude | Speed | Heading |
|---|---|---|---|---|---|
| 2026-05-03 22:25 | 21.03583 | -86.86949 | 19 ft | 0 kts | 34° |
| 2026-05-03 22:33 | 21.03581 | -86.86951 | 19 ft | 1 kts | 34° |
| 2026-05-03 22:33 | 21.03575 | -86.86955 | 20 ft | 1 kts | 34° |
| 2026-05-03 22:34 | 21.03569 | -86.86960 | 21 ft | 1 kts | 34° |
| 2026-05-03 22:34 | 21.03562 | -86.86964 | 21 ft | 1 kts | 34° |
| 2026-05-03 22:34 | 21.03556 | -86.86969 | 19 ft | 1 kts | 34° |
| 2026-05-03 22:34 | 21.03550 | -86.86973 | 21 ft | 1 kts | 34° |
| 2026-05-03 22:35 | 21.03544 | -86.86978 | 20 ft | 1 kts | 34° |
| 2026-05-03 22:35 | 21.03535 | -86.86984 | 20 ft | 2 kts | 34° |
| 2026-05-03 22:35 | 21.03523 | -86.86993 | 22 ft | 2 kts | 33° |
| 2026-05-03 22:35 | 21.03509 | -86.86998 | 19 ft | 2 kts | 336° |
| 2026-05-03 22:36 | 21.03496 | -86.86990 | 23 ft | 2 kts | 319° |
| 2026-05-03 22:36 | 21.03494 | -86.86988 | 23 ft | 0 kts | 306° |
| 2026-05-03 22:37 | 21.03522 | -86.87032 | 19 ft | 16 kts | 303° |
| 2026-05-03 22:37 | 21.03544 | -86.87093 | 19 ft | 5 kts | 262° |
| 2026-05-03 22:37 | 21.03525 | -86.87177 | 21 ft | 16 kts | 295° |
| 2026-05-03 22:38 | 21.03622 | -86.87336 | 20 ft | 31 kts | 304° |
| 2026-05-03 22:38 | 21.03721 | -86.87494 | 21 ft | 22 kts | 304° |
| 2026-05-03 22:38 | 21.03812 | -86.87638 | 21 ft | 25 kts | 303° |
| 2026-05-03 22:38 | 21.03893 | -86.87770 | 21 ft | 20 kts | 304° |
| 2026-05-03 22:39 | 21.03978 | -86.87902 | 21 ft | 20 kts | 305° |
| 2026-05-03 22:39 | 21.04057 | -86.88026 | 25 ft | 22 kts | 303° |
| 2026-05-03 22:39 | 21.04138 | -86.88157 | 22 ft | 21 kts | 304° |
| 2026-05-03 22:39 | 21.04215 | -86.88279 | 23 ft | 21 kts | 303° |
| 2026-05-03 22:40 | 21.04303 | -86.88418 | 23 ft | 21 kts | 304° |
| 2026-05-03 22:40 | 21.04378 | -86.88539 | 24 ft | 18 kts | 304° |
| 2026-05-03 22:40 | 21.04449 | -86.88651 | 26 ft | 19 kts | 303° |
| 2026-05-03 22:40 | 21.04523 | -86.88771 | 24 ft | 19 kts | 303° |
| 2026-05-03 22:41 | 21.04587 | -86.88874 | 26 ft | 16 kts | 304° |
| 2026-05-03 22:41 | 21.04640 | -86.88978 | 28 ft | 13 kts | 273° |
| 2026-05-03 22:41 | 21.04616 | -86.89020 | 27 ft | 0 kts | 216° |
| 2026-05-03 22:42 | 21.04605 | -86.89029 | 27 ft | 5 kts | 216° |
| 2026-05-03 22:42 | 21.04561 | -86.89063 | 24 ft | 10 kts | 216° |
| 2026-05-03 22:42 | 21.04499 | -86.89044 | 27 ft | 12 kts | 125° |
| 2026-05-03 22:43 | 21.04495 | -86.89037 | 26 ft | 0 kts | 121° |
| 2026-05-03 22:44 | 21.04440 | -86.88946 | 23 ft | 47 kts | 123° |
| 2026-05-03 22:44 | 21.04122 | -86.88439 | 24 ft | 113 kts | 123° |
| 2026-05-03 22:45 | 21.03599 | -86.87606 | 174 ft | 146 kts | 124° |
| 2026-05-03 22:45 | 21.03027 | -86.86679 | 678 ft | 153 kts | 123° |
| 2026-05-03 22:45 | 21.02408 | -86.85718 | 1242 ft | 159 kts | 124° |
| 2026-05-03 22:45 | 21.01779 | -86.84740 | 1840 ft | 162 kts | 122° |
| 2026-05-03 22:46 | 21.01155 | -86.83660 | 2228 ft | 179 kts | 119° |
| 2026-05-03 22:46 | 21.00504 | -86.82410 | 2527 ft | 203 kts | 117° |
| 2026-05-03 22:46 | 20.99810 | -86.80999 | 3008 ft | 225 kts | 117° |
| 2026-05-03 22:46 | 20.99057 | -86.79435 | 3580 ft | 247 kts | 117° |
| 2026-05-03 22:47 | 20.98233 | -86.77721 | 4189 ft | 268 kts | 117° |
| 2026-05-03 22:47 | 20.97366 | -86.75922 | 4445 ft | 276 kts | 117° |
| 2026-05-03 22:47 | 20.96500 | -86.74097 | 4549 ft | 275 kts | 112° |
| 2026-05-03 22:47 | 20.96072 | -86.72113 | 4650 ft | 275 kts | 91° |
| 2026-05-03 22:48 | 20.96321 | -86.70063 | 4939 ft | 280 kts | 77° |
| 2026-05-03 22:48 | 20.96725 | -86.68008 | 5844 ft | 281 kts | 78° |
| 2026-05-03 22:48 | 20.97110 | -86.65978 | 6840 ft | 284 kts | 78° |
| 2026-05-03 22:48 | 20.97503 | -86.63881 | 7737 ft | 289 kts | 78° |
| 2026-05-03 22:49 | 20.97899 | -86.61752 | 8651 ft | 294 kts | 77° |
| 2026-05-03 22:49 | 20.98328 | -86.59614 | 9556 ft | 298 kts | 73° |
| 2026-05-03 22:49 | 20.99022 | -86.57504 | 10365 ft | 305 kts | 68° |
| 2026-05-03 22:49 | 20.99803 | -86.55294 | 10712 ft | 329 kts | 68° |
| 2026-05-03 22:50 | 21.00627 | -86.52940 | 11018 ft | 351 kts | 68° |
| 2026-05-03 22:50 | 21.01484 | -86.50478 | 11709 ft | 358 kts | 68° |
| 2026-05-03 22:50 | 21.02359 | -86.47954 | 12485 ft | 363 kts | 68° |
| 2026-05-03 22:50 | 21.03244 | -86.45401 | 13248 ft | 368 kts | 68° |
| 2026-05-03 22:51 | 21.04130 | -86.42843 | 13965 ft | 373 kts | 68° |
| 2026-05-03 22:51 | 21.05042 | -86.40213 | 14627 ft | 378 kts | 68° |
| 2026-05-03 22:51 | 21.05967 | -86.37543 | 15277 ft | 383 kts | 68° |
| 2026-05-03 22:51 | 21.06904 | -86.34841 | 15923 ft | 388 kts | 68° |
| 2026-05-03 22:52 | 21.07836 | -86.32148 | 16539 ft | 393 kts | 68° |
| 2026-05-03 22:52 | 21.08794 | -86.29380 | 17162 ft | 398 kts | 68° |
| 2026-05-03 22:52 | 21.09764 | -86.26579 | 17770 ft | 403 kts | 68° |
| 2026-05-03 22:52 | 21.10752 | -86.23717 | 18220 ft | 413 kts | 68° |
| 2026-05-03 22:53 | 21.11752 | -86.20820 | 18751 ft | 417 kts | 68° |
| 2026-05-03 22:53 | 21.12763 | -86.17891 | 19317 ft | 420 kts | 68° |
| 2026-05-03 22:53 | 21.13775 | -86.14958 | 19925 ft | 421 kts | 68° |
| 2026-05-03 22:53 | 21.14784 | -86.12033 | 20453 ft | 425 kts | 68° |
| 2026-05-03 22:54 | 21.15814 | -86.09044 | 20975 ft | 429 kts | 68° |
| 2026-05-03 22:54 | 21.16856 | -86.06019 | 21514 ft | 433 kts | 68° |
| 2026-05-03 22:54 | 21.17904 | -86.02972 | 22047 ft | 437 kts | 68° |
| 2026-05-03 22:54 | 21.18959 | -85.99894 | 22572 ft | 441 kts | 70° |
| 2026-05-03 22:55 | 21.19783 | -85.96707 | 23095 ft | 446 kts | 77° |
| 2026-05-03 22:55 | 21.20385 | -85.93471 | 23601 ft | 450 kts | 78° |
| 2026-05-03 22:55 | 21.21011 | -85.90152 | 24041 ft | 453 kts | 78° |
| 2026-05-03 22:55 | 21.21644 | -85.86817 | 24481 ft | 457 kts | 77° |
| 2026-05-03 22:56 | 21.22273 | -85.83512 | 24908 ft | 460 kts | 77° |
| 2026-05-03 22:56 | 21.22915 | -85.80132 | 25326 ft | 463 kts | 77° |
| 2026-05-03 22:56 | 21.23560 | -85.76730 | 25737 ft | 467 kts | 77° |
| 2026-05-03 22:56 | 21.24209 | -85.73307 | 26141 ft | 470 kts | 78° |
| 2026-05-03 22:57 | 21.24860 | -85.69862 | 26539 ft | 473 kts | 78° |
| 2026-05-03 22:57 | 21.25534 | -85.66396 | 26918 ft | 476 kts | 74° |
| 2026-05-03 22:57 | 21.26662 | -85.63057 | 27275 ft | 476 kts | 62° |
| 2026-05-03 22:57 | 21.28376 | -85.60074 | 27645 ft | 475 kts | 49° |
| 2026-05-03 22:58 | 21.30622 | -85.57487 | 28004 ft | 474 kts | 39° |
| 2026-05-03 22:58 | 21.33105 | -85.55131 | 28366 ft | 476 kts | 37° |
| 2026-05-03 22:58 | 21.35631 | -85.52812 | 28726 ft | 478 kts | 37° |
| 2026-05-03 22:58 | 21.38130 | -85.50484 | 29068 ft | 482 kts | 38° |
| 2026-05-03 22:59 | 21.40652 | -85.48084 | 29406 ft | 485 kts | 38° |
| 2026-05-03 22:59 | 21.43180 | -85.45641 | 29741 ft | 488 kts | 39° |
| 2026-05-03 22:59 | 21.45702 | -85.43184 | 30075 ft | 490 kts | 39° |
| 2026-05-03 22:59 | 21.48232 | -85.40711 | 30383 ft | 492 kts | 39° |
| 2026-05-03 23:00 | 21.50736 | -85.38260 | 30690 ft | 495 kts | 39° |
| 2026-05-03 23:00 | 21.53294 | -85.35757 | 30993 ft | 497 kts | 39° |
| 2026-05-03 23:00 | 21.55855 | -85.33249 | 31343 ft | 498 kts | 38° |
| 2026-05-03 23:00 | 21.58425 | -85.30731 | 31749 ft | 498 kts | 38° |
| 2026-05-03 23:01 | 21.60991 | -85.28217 | 32155 ft | 498 kts | 38° |
| 2026-05-03 23:01 | 21.63549 | -85.25709 | 32557 ft | 497 kts | 38° |
| 2026-05-03 23:01 | 21.66071 | -85.23235 | 32942 ft | 497 kts | 38° |
| 2026-05-03 23:01 | 21.68636 | -85.20718 | 33328 ft | 497 kts | 38° |
| 2026-05-03 23:02 | 21.71191 | -85.18210 | 33707 ft | 496 kts | 38° |
| 2026-05-03 23:02 | 21.73752 | -85.15692 | 34021 ft | 499 kts | 37° |
| 2026-05-03 23:02 | 21.76295 | -85.13191 | 34196 ft | 501 kts | 37° |
| 2026-05-03 23:02 | 21.78883 | -85.10645 | 34533 ft | 500 kts | 37° |
| 2026-05-03 23:03 | 21.81449 | -85.08120 | 34805 ft | 500 kts | 37° |
| 2026-05-03 23:03 | 21.86571 | -85.03079 | 34979 ft | 497 kts | 38° |
| 2026-05-03 23:04 | 21.91637 | -84.98088 | 35002 ft | 496 kts | 38° |
| 2026-05-03 23:04 | 21.96748 | -84.93047 | 35000 ft | 497 kts | 38° |
| 2026-05-03 23:05 | 22.01854 | -84.88007 | 35002 ft | 496 kts | 38° |
| 2026-05-03 23:05 | 22.06928 | -84.82992 | 35006 ft | 499 kts | 37° |
| 2026-05-03 23:06 | 22.12079 | -84.77898 | 35015 ft | 502 kts | 37° |
| 2026-05-03 23:06 | 22.17173 | -84.72850 | 35001 ft | 499 kts | 37° |
| 2026-05-03 23:07 | 22.22301 | -84.67767 | 35003 ft | 499 kts | 37° |
| 2026-05-03 23:07 | 22.27400 | -84.62709 | 35002 ft | 501 kts | 38° |
| 2026-05-03 23:08 | 22.32532 | -84.57610 | 35006 ft | 500 kts | 38° |
| 2026-05-03 23:08 | 22.37659 | -84.52509 | 35005 ft | 501 kts | 37° |
| 2026-05-03 23:09 | 22.42800 | -84.47390 | 34996 ft | 501 kts | 37° |
| 2026-05-03 23:09 | 22.47914 | -84.42295 | 34998 ft | 502 kts | 37° |
| 2026-05-03 23:10 | 22.53049 | -84.37173 | 35000 ft | 502 kts | 37° |
| 2026-05-03 23:10 | 22.58183 | -84.32046 | 34999 ft | 502 kts | 37° |
| 2026-05-03 23:11 | 22.63292 | -84.26939 | 35002 ft | 502 kts | 38° |
| 2026-05-03 23:11 | 22.68050 | -84.21334 | 35044 ft | 508 kts | 46° |
| 2026-05-03 23:12 | 22.72600 | -84.15444 | 34994 ft | 509 kts | 45° |
| 2026-05-03 23:12 | 22.77151 | -84.09622 | 34999 ft | 509 kts | 45° |
| 2026-05-03 23:13 | 22.81776 | -84.03800 | 35003 ft | 510 kts | 45° |
| 2026-05-03 23:13 | 22.86404 | -83.97955 | 35009 ft | 511 kts | 45° |
| 2026-05-03 23:14 | 22.90861 | -83.92308 | 35013 ft | 511 kts | 45° |
| 2026-05-03 23:14 | 22.95463 | -83.86467 | 35020 ft | 511 kts | 45° |
| 2026-05-03 23:15 | 23.00095 | -83.80582 | 35012 ft | 512 kts | 45° |
| 2026-05-03 23:15 | 23.04709 | -83.74712 | 35012 ft | 513 kts | 45° |
| 2026-05-03 23:16 | 23.09349 | -83.68804 | 35013 ft | 513 kts | 45° |
| 2026-05-03 23:16 | 23.13199 | -83.63895 | 35014 ft | 513 kts | 45° |
| 2026-05-03 23:17 | 23.17825 | -83.57991 | 35016 ft | 513 kts | 45° |
| 2026-05-03 23:17 | 23.22453 | -83.52079 | 35013 ft | 512 kts | 45° |
| 2026-05-03 23:18 | 23.27047 | -83.46202 | 35010 ft | 508 kts | 45° |
| 2026-05-03 23:18 | 23.31629 | -83.40338 | 35014 ft | 513 kts | 45° |
| 2026-05-03 23:19 | 23.36255 | -83.34406 | 35016 ft | 512 kts | 45° |
| 2026-05-03 23:19 | 23.40867 | -83.28484 | 35016 ft | 512 kts | 45° |
| 2026-05-03 23:20 | 23.45448 | -83.22596 | 35013 ft | 512 kts | 45° |
| 2026-05-03 23:20 | 23.50078 | -83.16639 | 35014 ft | 512 kts | 45° |
| 2026-05-03 23:21 | 23.54621 | -83.10788 | 35022 ft | 512 kts | 46° |
| 2026-05-03 23:21 | 23.59231 | -83.04837 | 35021 ft | 512 kts | 46° |
| 2026-05-03 23:22 | 23.66118 | -82.95932 | 35006 ft | 513 kts | 46° |
| 2026-05-03 23:22 | 23.70731 | -82.89959 | 35008 ft | 514 kts | 46° |
| 2026-05-03 23:23 | 23.75310 | -82.84023 | 35009 ft | 514 kts | 46° |
| 2026-05-03 23:23 | 23.79934 | -82.78022 | 35006 ft | 514 kts | 46° |
| 2026-05-03 23:24 | 23.84512 | -82.72074 | 35010 ft | 511 kts | 46° |
| 2026-05-03 23:24 | 23.89067 | -82.66148 | 35012 ft | 511 kts | 46° |
| 2026-05-03 23:25 | 23.93672 | -82.60153 | 35012 ft | 515 kts | 46° |
| 2026-05-03 23:25 | 23.98283 | -82.54138 | 35012 ft | 514 kts | 46° |
| 2026-05-03 23:26 | 24.02853 | -82.48173 | 35012 ft | 514 kts | 46° |
| 2026-05-03 23:26 | 24.07458 | -82.42157 | 35008 ft | 514 kts | 46° |
| 2026-05-03 23:27 | 24.12050 | -82.36159 | 35013 ft | 513 kts | 47° |
| 2026-05-03 23:27 | 24.16604 | -82.30212 | 35010 ft | 512 kts | 47° |
| 2026-05-03 23:28 | 24.21197 | -82.24212 | 35011 ft | 516 kts | 47° |
| 2026-05-03 23:28 | 24.23664 | -82.21375 | 35012 ft | 512 kts | 36° |
| 2026-05-03 23:28 | 24.26494 | -82.19039 | 35014 ft | 507 kts | 30° |
| 2026-05-03 23:29 | 24.32052 | -82.14332 | 35009 ft | 511 kts | 38° |
| 2026-05-03 23:29 | 24.37169 | -82.08853 | 35013 ft | 514 kts | 42° |
| 2026-05-03 23:30 | 24.42087 | -82.03140 | 35011 ft | 515 kts | 43° |
| 2026-05-03 23:30 | 24.46956 | -81.97437 | 34876 ft | 515 kts | 43° |
| 2026-05-03 23:31 | 24.49417 | -81.94560 | 34640 ft | 514 kts | 43° |
| 2026-05-03 23:31 | 24.51867 | -81.91698 | 34408 ft | 513 kts | 43° |
| 2026-05-03 23:31 | 24.54273 | -81.88889 | 34186 ft | 514 kts | 43° |
| 2026-05-03 23:31 | 24.56738 | -81.86009 | 33947 ft | 514 kts | 43° |
| 2026-05-03 23:32 | 24.59158 | -81.83180 | 33689 ft | 515 kts | 43° |
| 2026-05-03 23:32 | 24.61537 | -81.80398 | 33449 ft | 515 kts | 43° |
| 2026-05-03 23:32 | 24.63989 | -81.77529 | 33196 ft | 515 kts | 43° |
| 2026-05-03 23:32 | 24.66450 | -81.74647 | 32941 ft | 516 kts | 43° |
| 2026-05-03 23:33 | 24.68822 | -81.71868 | 32699 ft | 516 kts | 43° |
| 2026-05-03 23:33 | 24.71293 | -81.68971 | 32450 ft | 517 kts | 43° |
| 2026-05-03 23:33 | 24.73755 | -81.66083 | 32206 ft | 517 kts | 43° |
| 2026-05-03 23:33 | 24.76218 | -81.63192 | 31952 ft | 518 kts | 44° |
| 2026-05-03 23:34 | 24.78665 | -81.60318 | 31742 ft | 520 kts | 43° |
| 2026-05-03 23:34 | 24.81159 | -81.57385 | 31503 ft | 523 kts | 44° |
| 2026-05-03 23:34 | 24.83706 | -81.54531 | 31086 ft | 519 kts | 38° |
| 2026-05-03 23:34 | 24.86537 | -81.52104 | 30469 ft | 512 kts | 27° |
| 2026-05-03 23:35 | 24.89592 | -81.50250 | 29866 ft | 503 kts | 22° |
| 2026-05-03 23:35 | 24.92702 | -81.48487 | 29211 ft | 497 kts | 21° |
| 2026-05-03 23:35 | 24.95776 | -81.46771 | 28573 ft | 492 kts | 21° |
| 2026-05-03 23:35 | 24.98821 | -81.45087 | 27939 ft | 487 kts | 21° |
| 2026-05-03 23:36 | 25.01838 | -81.43428 | 27319 ft | 482 kts | 21° |
| 2026-05-03 23:36 | 25.04785 | -81.41810 | 26740 ft | 477 kts | 21° |
| 2026-05-03 23:36 | 25.07717 | -81.40197 | 26496 ft | 463 kts | 21° |
| 2026-05-03 23:36 | 25.10581 | -81.38621 | 26058 ft | 457 kts | 21° |
| 2026-05-03 23:37 | 25.13423 | -81.37059 | 25511 ft | 453 kts | 21° |
| 2026-05-03 23:37 | 25.16204 | -81.35531 | 24992 ft | 449 kts | 21° |
| 2026-05-03 23:37 | 25.19006 | -81.33989 | 24465 ft | 445 kts | 21° |
| 2026-05-03 23:37 | 25.21775 | -81.32465 | 23959 ft | 441 kts | 21° |
| 2026-05-03 23:38 | 25.24386 | -81.30743 | 23488 ft | 443 kts | 33° |
| 2026-05-03 23:38 | 25.26609 | -81.28371 | 23186 ft | 446 kts | 48° |
| 2026-05-03 23:38 | 25.28297 | -81.25463 | 22931 ft | 452 kts | 63° |
| 2026-05-03 23:38 | 25.29318 | -81.22193 | 22673 ft | 451 kts | 79° |
| 2026-05-03 23:39 | 25.29607 | -81.18758 | 22419 ft | 445 kts | 94° |
| 2026-05-03 23:39 | 25.29170 | -81.15403 | 22168 ft | 438 kts | 109° |
| 2026-05-03 23:39 | 25.28088 | -81.12341 | 21921 ft | 429 kts | 123° |
| 2026-05-03 23:39 | 25.26431 | -81.09649 | 21674 ft | 418 kts | 137° |
| 2026-05-03 23:40 | 25.24340 | -81.07483 | 21424 ft | 406 kts | 150° |
| 2026-05-03 23:40 | 25.21947 | -81.05904 | 21184 ft | 395 kts | 162° |
| 2026-05-03 23:40 | 25.19383 | -81.04935 | 20937 ft | 384 kts | 174° |
| 2026-05-03 23:40 | 25.16800 | -81.04569 | 20692 ft | 374 kts | 185° |
| 2026-05-03 23:41 | 25.14236 | -81.04764 | 20462 ft | 365 kts | 195° |
| 2026-05-03 23:41 | 25.11807 | -81.05484 | 20232 ft | 357 kts | 206° |
| 2026-05-03 23:41 | 25.09588 | -81.06672 | 19992 ft | 351 kts | 216° |
| 2026-05-03 23:41 | 25.07623 | -81.08245 | 19760 ft | 347 kts | 222° |
| 2026-05-03 23:42 | 25.05744 | -81.09871 | 19509 ft | 347 kts | 221° |
| 2026-05-03 23:42 | 25.03834 | -81.11508 | 19279 ft | 347 kts | 221° |
| 2026-05-03 23:42 | 25.01916 | -81.13151 | 19049 ft | 346 kts | 221° |
| 2026-05-03 23:42 | 25.00021 | -81.14779 | 18820 ft | 345 kts | 221° |
| 2026-05-03 23:43 | 24.98130 | -81.16406 | 18597 ft | 344 kts | 221° |
| 2026-05-03 23:43 | 24.96267 | -81.18012 | 18376 ft | 343 kts | 221° |
| 2026-05-03 23:43 | 24.94385 | -81.19635 | 18130 ft | 342 kts | 221° |
| 2026-05-03 23:43 | 24.92507 | -81.21255 | 17870 ft | 341 kts | 221° |
| 2026-05-03 23:44 | 24.90713 | -81.22902 | 17623 ft | 338 kts | 226° |
| 2026-05-03 23:44 | 24.89136 | -81.24822 | 17364 ft | 336 kts | 234° |
| 2026-05-03 23:44 | 24.87861 | -81.26977 | 17108 ft | 334 kts | 243° |
| 2026-05-03 23:44 | 24.87009 | -81.29157 | 16878 ft | 333 kts | 252° |
| 2026-05-03 23:45 | 24.86481 | -81.31617 | 16630 ft | 333 kts | 261° |
| 2026-05-03 23:45 | 24.86360 | -81.34163 | 16383 ft | 334 kts | 270° |
| 2026-05-03 23:45 | 24.86655 | -81.36704 | 16145 ft | 335 kts | 280° |
| 2026-05-03 23:45 | 24.87360 | -81.39161 | 15907 ft | 337 kts | 289° |
| 2026-05-03 23:46 | 24.88444 | -81.41433 | 15667 ft | 340 kts | 299° |
| 2026-05-03 23:46 | 24.89914 | -81.43504 | 15432 ft | 344 kts | 309° |
| 2026-05-03 23:46 | 24.91715 | -81.45261 | 15195 ft | 348 kts | 320° |
| 2026-05-03 23:46 | 24.93804 | -81.46638 | 14957 ft | 352 kts | 331° |
| 2026-05-03 23:47 | 24.96196 | -81.47317 | 14722 ft | 361 kts | 353° |
| 2026-05-03 23:47 | 24.98657 | -81.46999 | 14631 ft | 360 kts | 14° |
| 2026-05-03 23:47 | 25.00861 | -81.45752 | 14524 ft | 354 kts | 34° |
| 2026-05-03 23:47 | 25.02725 | -81.44039 | 14406 ft | 343 kts | 39° |
| 2026-05-03 23:48 | 25.04488 | -81.42304 | 14140 ft | 336 kts | 39° |
| 2026-05-03 23:48 | 25.06256 | -81.40664 | 13917 ft | 337 kts | 37° |
| 2026-05-03 23:48 | 25.08104 | -81.39066 | 13679 ft | 336 kts | 34° |
| 2026-05-03 23:48 | 25.09972 | -81.37525 | 13422 ft | 334 kts | 33° |
| 2026-05-03 23:49 | 25.11844 | -81.36017 | 13170 ft | 332 kts | 33° |
| 2026-05-03 23:49 | 25.13717 | -81.34522 | 12922 ft | 330 kts | 33° |
| 2026-05-03 23:49 | 25.15557 | -81.33056 | 12671 ft | 329 kts | 33° |
| 2026-05-03 23:49 | 25.17418 | -81.31572 | 12420 ft | 327 kts | 33° |
| 2026-05-03 23:50 | 25.19260 | -81.30101 | 12176 ft | 326 kts | 33° |
| 2026-05-03 23:50 | 25.20473 | -81.29131 | 12012 ft | 325 kts | 33° |
| 2026-05-03 23:50 | 25.22895 | -81.27192 | 11692 ft | 322 kts | 33° |
| 2026-05-03 23:50 | 25.24709 | -81.25739 | 11449 ft | 320 kts | 33° |
| 2026-05-03 23:51 | 25.26519 | -81.24290 | 11211 ft | 320 kts | 33° |
| 2026-05-03 23:51 | 25.28313 | -81.22851 | 10972 ft | 317 kts | 33° |
| 2026-05-03 23:51 | 25.30085 | -81.21430 | 10746 ft | 317 kts | 33° |
| 2026-05-03 23:51 | 25.31865 | -81.20002 | 10504 ft | 315 kts | 33° |
| 2026-05-03 23:52 | 25.33636 | -81.18581 | 10270 ft | 313 kts | 33° |
| 2026-05-03 23:52 | 25.35404 | -81.17161 | 10034 ft | 312 kts | 33° |
| 2026-05-03 23:52 | 25.37135 | -81.15772 | 9858 ft | 310 kts | 33° |
| 2026-05-03 23:52 | 25.38885 | -81.14365 | 9742 ft | 311 kts | 33° |
| 2026-05-03 23:53 | 25.40639 | -81.12956 | 9610 ft | 311 kts | 33° |
| 2026-05-03 23:53 | 25.42393 | -81.11546 | 9489 ft | 311 kts | 33° |
| 2026-05-03 23:53 | 25.44139 | -81.10142 | 9352 ft | 310 kts | 33° |
| 2026-05-03 23:53 | 25.45883 | -81.08738 | 9232 ft | 309 kts | 33° |
| 2026-05-03 23:54 | 25.47601 | -81.07355 | 9105 ft | 308 kts | 33° |
| 2026-05-03 23:54 | 25.49333 | -81.05960 | 9014 ft | 307 kts | 33° |
| 2026-05-03 23:54 | 25.51067 | -81.04563 | 8991 ft | 308 kts | 33° |
| 2026-05-03 23:54 | 25.52800 | -81.03166 | 8996 ft | 308 kts | 33° |
| 2026-05-03 23:55 | 25.54538 | -81.01765 | 8997 ft | 308 kts | 33° |
| 2026-05-03 23:55 | 25.56275 | -81.00364 | 8997 ft | 308 kts | 33° |
| 2026-05-03 23:55 | 25.57987 | -80.98982 | 8996 ft | 308 kts | 33° |
| 2026-05-03 23:55 | 25.59722 | -80.97582 | 8991 ft | 308 kts | 33° |
| 2026-05-03 23:56 | 25.61508 | -80.96283 | 8972 ft | 304 kts | 22° |
| 2026-05-03 23:56 | 25.63492 | -80.95571 | 8794 ft | 296 kts | 5° |
| 2026-05-03 23:56 | 25.65538 | -80.95376 | 8403 ft | 294 kts | 359° |
| 2026-05-03 23:56 | 25.67554 | -80.95224 | 8045 ft | 292 kts | 360° |
| 2026-05-03 23:57 | 25.69577 | -80.95065 | 7675 ft | 290 kts | 0° |
| 2026-05-03 23:57 | 25.71582 | -80.94902 | 7296 ft | 288 kts | 0° |
| 2026-05-03 23:57 | 25.73560 | -80.94738 | 7207 ft | 283 kts | 0° |
| 2026-05-03 23:57 | 25.75512 | -80.94575 | 7113 ft | 280 kts | 0° |
| 2026-05-03 23:58 | 25.77445 | -80.94415 | 7024 ft | 283 kts | 0° |
| 2026-05-03 23:58 | 25.79407 | -80.94252 | 6992 ft | 282 kts | 0° |
| 2026-05-03 23:58 | 25.81363 | -80.94089 | 6991 ft | 282 kts | 0° |
| 2026-05-03 23:58 | 25.83334 | -80.93924 | 6992 ft | 283 kts | 0° |
| 2026-05-03 23:59 | 25.85301 | -80.93760 | 7000 ft | 282 kts | 0° |
| 2026-05-03 23:59 | 25.87230 | -80.93463 | 7000 ft | 285 kts | 11° |
| 2026-05-03 23:59 | 25.89096 | -80.92664 | 7000 ft | 290 kts | 25° |
| 2026-05-03 23:59 | 25.90858 | -80.91562 | 6999 ft | 290 kts | 26° |
| 2026-05-04 00:00 | 25.92627 | -80.90467 | 6996 ft | 290 kts | 26° |
| 2026-05-04 00:00 | 25.94393 | -80.89382 | 6999 ft | 290 kts | 26° |
| 2026-05-04 00:00 | 25.96139 | -80.88313 | 7000 ft | 290 kts | 26° |
| 2026-05-04 00:00 | 25.97906 | -80.87229 | 7006 ft | 288 kts | 25° |
| 2026-05-04 00:01 | 25.99654 | -80.86147 | 7000 ft | 288 kts | 28° |
| 2026-05-04 00:01 | 26.01111 | -80.84609 | 7001 ft | 294 kts | 55° |
| 2026-05-04 00:01 | 26.01878 | -80.82488 | 7003 ft | 296 kts | 76° |
| 2026-05-04 00:01 | 26.02240 | -80.80270 | 6972 ft | 293 kts | 82° |
| 2026-05-04 00:02 | 26.02512 | -80.78057 | 6902 ft | 283 kts | 82° |
| 2026-05-04 00:02 | 26.02780 | -80.75916 | 6724 ft | 276 kts | 81° |
| 2026-05-04 00:02 | 26.03073 | -80.73803 | 6720 ft | 279 kts | 81° |
| 2026-05-04 00:02 | 26.03391 | -80.71673 | 6698 ft | 277 kts | 80° |
| 2026-05-04 00:03 | 26.03713 | -80.69603 | 6555 ft | 263 kts | 79° |
| 2026-05-04 00:03 | 26.04025 | -80.67637 | 5964 ft | 259 kts | 79° |
| 2026-05-04 00:03 | 26.04338 | -80.65677 | 5367 ft | 254 kts | 79° |
| 2026-05-04 00:03 | 26.04641 | -80.63770 | 4730 ft | 248 kts | 79° |
| 2026-05-04 00:04 | 26.04838 | -80.62527 | 4472 ft | 237 kts | 79° |
| 2026-05-04 00:04 | 26.05130 | -80.60691 | 4374 ft | 248 kts | 79° |
| 2026-05-04 00:04 | 26.05524 | -80.58200 | 4243 ft | 245 kts | 79° |
| 2026-05-04 00:04 | 26.05721 | -80.56951 | 4202 ft | 239 kts | 79° |
| 2026-05-04 00:05 | 26.05998 | -80.55194 | 3882 ft | 230 kts | 79° |
| 2026-05-04 00:05 | 26.06293 | -80.53460 | 3394 ft | 224 kts | 75° |
| 2026-05-04 00:05 | 26.06652 | -80.51786 | 3291 ft | 229 kts | 80° |
| 2026-05-04 00:05 | 26.06811 | -80.50009 | 3193 ft | 229 kts | 88° |
| 2026-05-04 00:06 | 26.06808 | -80.48275 | 3088 ft | 220 kts | 91° |
| 2026-05-04 00:06 | 26.06787 | -80.46631 | 3035 ft | 210 kts | 91° |
| 2026-05-04 00:06 | 26.06777 | -80.44987 | 3003 ft | 213 kts | 91° |
| 2026-05-04 00:06 | 26.06768 | -80.43644 | 3002 ft | 212 kts | 91° |
| 2026-05-04 00:07 | 26.06758 | -80.42060 | 2997 ft | 211 kts | 91° |
| 2026-05-04 00:07 | 26.06748 | -80.40476 | 3002 ft | 207 kts | 91° |
| 2026-05-04 00:07 | 26.06738 | -80.38868 | 3001 ft | 207 kts | 90° |
| 2026-05-04 00:07 | 26.06727 | -80.37264 | 3003 ft | 207 kts | 91° |
| 2026-05-04 00:08 | 26.06717 | -80.35663 | 3003 ft | 206 kts | 91° |
| 2026-05-04 00:08 | 26.06707 | -80.34067 | 3005 ft | 206 kts | 90° |
| 2026-05-04 00:08 | 26.06696 | -80.32466 | 2885 ft | 208 kts | 90° |
| 2026-05-04 00:08 | 26.06686 | -80.30876 | 2616 ft | 204 kts | 90° |
| 2026-05-04 00:09 | 26.06676 | -80.29337 | 2339 ft | 200 kts | 90° |
| 2026-05-04 00:09 | 26.06667 | -80.27799 | 2075 ft | 198 kts | 90° |
| 2026-05-04 00:09 | 26.06657 | -80.26275 | 1817 ft | 196 kts | 89° |
| 2026-05-04 00:09 | 26.06648 | -80.24757 | 1558 ft | 196 kts | 89° |
| 2026-05-04 00:10 | 26.06638 | -80.23250 | 1306 ft | 195 kts | 89° |
| 2026-05-04 00:10 | 26.06628 | -80.21742 | 1051 ft | 195 kts | 89° |
| 2026-05-04 00:10 | 26.06619 | -80.20253 | 808 ft | 194 kts | 89° |
| 2026-05-04 00:10 | 26.06609 | -80.18818 | 568 ft | 176 kts | 88° |
| 2026-05-04 00:11 | 26.06603 | -80.17534 | 350 ft | 154 kts | 88° |
| 2026-05-04 00:11 | 26.06594 | -80.16384 | 150 ft | 136 kts | 87° |
| 2026-05-04 00:11 | 26.06591 | -80.15460 | 52 ft | 120 kts | 87° |
| 2026-05-04 00:11 | 26.06592 | -80.14880 | 19 ft | 49 kts | 91° |
| 2026-05-04 00:12 | 26.06609 | -80.14685 | 20 ft | 15 kts | 43° |
| 2026-05-04 00:12 | 26.06648 | -80.14680 | 18 ft | 5 kts | 345° |
| 2026-05-04 00:12 | 26.06684 | -80.14699 | 18 ft | 0 kts | 306° |